createdAt,value
2019-04-01T00:01:57.411Z,11.20
2019-04-01T00:04:25.900Z,20.57
2019-04-01T00:06:54.378Z,21.53
2019-04-01T00:09:22.828Z,14.33
2019-04-01T00:11:51.808Z,7.73
2019-04-01T00:14:20.256Z,8.67
2019-04-01T00:16:48.661Z,12.67
2019-04-01T00:19:17.106Z,16.17
2019-04-01T00:21:45.665Z,17.53
2019-04-01T00:24:14.178Z,12.83
2019-04-01T00:26:42.632Z,17.27
2019-04-01T00:29:12.662Z,12.07
2019-04-01T00:31:41.077Z,19.97
2019-04-01T00:34:12.514Z,13.97
2019-04-01T00:36:41.032Z,9.07
2019-04-01T00:39:09.458Z,13.17
2019-04-01T00:41:39.557Z,23.87
2019-04-01T00:44:09.675Z,24.13
2019-04-01T00:46:38.080Z,9.00
2019-04-01T00:49:06.531Z,12.33
2019-04-01T00:51:34.969Z,22.83
2019-04-01T00:54:03.450Z,17.73
2019-04-01T00:56:32.018Z,16.10
2019-04-01T00:59:00.437Z,17.63
2019-04-01T01:01:28.879Z,11.43
2019-04-01T01:03:57.397Z,13.93
2019-04-01T01:06:25.844Z,11.43
2019-04-01T01:08:54.240Z,22.63
2019-04-01T01:11:22.984Z,17.23
2019-04-01T01:13:51.391Z,16.07
2019-04-01T01:16:19.832Z,18.40
2019-04-01T01:18:48.272Z,18.83
2019-04-01T01:21:16.684Z,11.17
2019-04-01T01:23:45.469Z,7.57
2019-04-01T01:26:14.474Z,12.73
2019-04-01T01:28:42.907Z,19.40
2019-04-01T01:31:11.308Z,23.73
2019-04-01T01:33:39.751Z,13.80
2019-04-01T01:36:08.251Z,9.80
2019-04-01T01:38:36.703Z,13.73
2019-04-01T01:41:05.384Z,24.30
2019-04-01T01:43:33.838Z,14.03
2019-04-01T01:46:02.841Z,12.67
2019-04-01T01:48:31.293Z,13.83
2019-04-01T01:50:59.735Z,21.63
2019-04-01T01:53:28.154Z,12.43
2019-04-01T01:55:56.593Z,11.77
2019-04-01T01:58:25.019Z,10.60
2019-04-01T02:00:55.096Z,23.13
2019-04-01T02:03:23.585Z,9.30
2019-04-01T02:05:52.051Z,19.10
2019-04-01T02:08:20.525Z,22.23
2019-04-01T02:10:48.979Z,12.90
2019-04-01T02:13:17.421Z,12.80
2019-04-01T02:15:45.825Z,8.50
2019-04-01T02:18:14.477Z,15.33
2019-04-01T02:20:43.024Z,10.90
2019-04-01T02:23:11.485Z,12.53
2019-04-01T02:25:39.904Z,7.13
2019-04-01T02:28:08.332Z,15.80
2019-04-01T02:30:36.781Z,11.53
2019-04-01T02:33:05.189Z,11.37
2019-04-01T02:35:33.750Z,12.37
2019-04-01T02:38:02.217Z,18.50
2019-04-01T02:40:30.632Z,10.57
2019-04-01T02:42:59.099Z,11.00
2019-04-01T02:45:27.505Z,11.03
2019-04-01T02:47:55.926Z,11.73
2019-04-01T02:50:24.430Z,9.67
2019-04-01T02:52:52.870Z,18.03
2019-04-01T02:55:21.325Z,13.60
2019-04-01T02:57:49.768Z,16.63
2019-04-01T03:00:18.536Z,7.00
2019-04-01T03:02:46.938Z,9.90
2019-04-01T03:05:15.377Z,20.13
2019-04-01T03:07:43.900Z,17.37
2019-04-01T03:10:12.486Z,8.70
2019-04-01T03:12:40.937Z,12.10
2019-04-01T03:15:09.486Z,10.83
2019-04-01T03:17:37.941Z,15.03
2019-04-01T03:20:07.488Z,17.87
2019-04-01T03:22:36.037Z,9.27
2019-04-01T03:25:05.909Z,11.73
2019-04-01T03:27:34.326Z,6.07
2019-04-01T03:30:02.803Z,17.87
2019-04-01T03:32:31.328Z,13.53
2019-04-01T03:34:59.771Z,17.83
2019-04-01T03:37:28.338Z,9.90
2019-04-01T03:39:56.781Z,18.10
2019-04-01T03:42:25.190Z,11.37
2019-04-01T03:44:55.331Z,11.70
2019-04-01T03:47:23.849Z,4.90
2019-04-01T03:49:52.275Z,13.53
2019-04-01T03:52:20.795Z,13.70
2019-04-01T03:54:49.232Z,23.20
2019-04-01T03:57:17.732Z,14.10
2019-04-01T03:59:46.149Z,12.40
2019-04-01T04:02:14.589Z,19.23
2019-04-01T04:04:42.982Z,11.43
2019-04-01T04:07:11.414Z,17.20
2019-04-01T04:09:39.855Z,17.17
2019-04-01T04:12:08.299Z,37.33
2019-04-01T04:14:36.706Z,19.23
2019-04-01T04:17:05.187Z,16.53
2019-04-01T04:19:33.601Z,15.53
2019-04-01T04:22:02.029Z,10.73
2019-04-01T04:24:30.466Z,28.60
2019-04-01T04:26:58.931Z,22.60
2019-04-01T04:29:27.587Z,16.87
2019-04-01T04:31:56.057Z,16.77
2019-04-01T04:34:24.491Z,15.70
2019-04-01T04:36:52.911Z,13.77
2019-04-01T04:39:21.343Z,19.40
2019-04-01T04:41:49.755Z,12.47
2019-04-01T04:44:18.211Z,15.37
2019-04-01T04:46:46.616Z,21.73
2019-04-01T04:49:16.527Z,21.20
2019-04-01T04:51:44.940Z,11.43
2019-04-01T04:54:13.400Z,21.10
2019-04-01T04:56:41.923Z,19.20
2019-04-01T04:59:10.337Z,18.13
2019-04-01T05:01:38.963Z,8.20
2019-04-01T05:04:07.453Z,13.63
2019-04-01T05:06:35.924Z,14.97
2019-04-01T05:09:06.209Z,14.90
2019-04-01T05:11:34.653Z,11.20
2019-04-01T05:14:03.059Z,13.63
2019-04-01T05:16:31.486Z,11.93
2019-04-01T05:18:59.911Z,12.67
2019-04-01T05:21:28.671Z,9.00
2019-04-01T05:23:57.455Z,14.83
2019-04-01T05:26:26.504Z,25.37
2019-04-01T05:28:55.075Z,12.53
2019-04-01T05:31:24.846Z,10.70
2019-04-01T05:33:55.944Z,11.60
2019-04-01T05:36:25.488Z,17.27
2019-04-01T05:38:53.951Z,34.37
2019-04-01T05:41:22.531Z,14.93
2019-04-01T05:43:51.509Z,18.13
2019-04-01T05:46:20.013Z,11.80
2019-04-01T05:48:49.578Z,8.63
2019-04-01T05:51:18.119Z,14.70
2019-04-01T05:53:47.089Z,14.17
2019-04-01T05:56:15.617Z,12.90
2019-04-01T05:58:44.043Z,14.83
2019-04-01T06:01:17.226Z,7.13
2019-04-01T06:03:45.850Z,16.20
2019-04-01T06:06:17.322Z,11.20
2019-04-01T06:08:48.546Z,19.97
2019-04-01T06:11:23.178Z,12.07
2019-04-01T06:13:56.515Z,11.03
2019-04-01T06:16:29.631Z,7.83
2019-04-01T06:18:59.179Z,14.40
2019-04-01T06:21:28.109Z,19.40
2019-04-01T06:23:59.007Z,19.70
2019-04-01T06:26:31.092Z,20.40
2019-04-01T06:29:02.131Z,23.70
2019-04-01T06:31:31.721Z,21.50
2019-04-01T06:34:00.360Z,16.33
2019-04-01T06:36:32.735Z,28.33
2019-04-01T06:39:05.851Z,7.90
2019-04-01T06:41:36.863Z,17.90
2019-04-01T06:44:05.077Z,17.83
2019-04-01T06:46:34.227Z,25.70
2019-04-01T06:49:06.171Z,21.87
2019-04-01T06:51:34.866Z,12.40
2019-04-01T06:54:03.437Z,22.10
2019-04-01T06:56:35.095Z,13.40
2019-04-01T06:59:04.892Z,15.30
2019-04-01T07:01:33.735Z,16.80
2019-04-01T07:04:02.355Z,16.10
2019-04-01T07:06:34.482Z,16.13
2019-04-01T07:09:06.154Z,11.53
2019-04-01T07:11:36.002Z,16.90
2019-04-01T07:14:05.404Z,16.13
2019-04-01T07:16:40.008Z,20.00
2019-04-01T07:19:09.871Z,17.47
2019-04-01T07:21:38.879Z,9.70
2019-04-01T07:24:07.719Z,11.20
2019-04-01T07:26:38.644Z,18.13
2019-04-01T07:29:11.894Z,14.93
2019-04-01T07:31:45.081Z,8.80
2019-04-01T07:34:14.869Z,15.43
2019-04-01T07:36:43.591Z,17.83
2019-04-01T07:39:13.179Z,12.10
2019-04-01T07:41:43.361Z,12.63
2019-04-01T07:44:12.408Z,15.03
2019-04-01T07:46:40.986Z,15.90
2019-04-01T07:49:14.172Z,17.63
2019-04-01T07:51:47.716Z,11.93
2019-04-01T07:54:18.704Z,12.33
2019-04-01T07:56:47.660Z,12.97
2019-04-01T07:59:16.988Z,11.97
2019-04-01T08:01:48.275Z,13.30
2019-04-01T08:04:21.455Z,8.73
2019-04-01T08:06:50.169Z,15.53
2019-04-01T08:09:18.861Z,13.27
2019-04-01T08:11:51.621Z,16.63
2019-04-01T08:14:23.141Z,16.00
2019-04-01T08:16:58.637Z,13.73
2019-04-01T08:19:29.658Z,9.57
2019-04-01T08:21:58.600Z,8.33
2019-04-01T08:24:27.100Z,13.90
2019-04-01T08:26:58.448Z,12.67
2019-04-01T08:29:30.794Z,12.53
2019-04-01T08:31:58.162Z,17.57
2019-04-01T08:34:27.085Z,11.23
2019-04-01T08:37:02.436Z,18.90
2019-04-01T08:39:33.519Z,7.83
2019-04-01T08:42:06.706Z,10.77
2019-04-01T08:44:35.242Z,16.20
2019-04-01T08:47:03.673Z,15.80
2019-04-01T08:49:34.443Z,19.13
2019-04-01T08:52:04.900Z,24.47
2019-04-01T08:54:35.335Z,13.73
2019-04-01T08:57:04.357Z,23.47
2019-04-01T08:59:35.175Z,22.87
2019-04-01T09:02:18.080Z,16.33
2019-04-01T09:04:45.568Z,17.20
2019-04-01T09:07:17.459Z,18.77
2019-04-01T09:09:48.816Z,16.33
2019-04-01T09:12:18.321Z,24.43
2019-04-01T09:14:47.610Z,12.90
2019-04-01T09:17:18.272Z,11.07
2019-04-01T09:19:48.093Z,15.73
2019-04-01T09:22:16.516Z,21.20
2019-04-01T09:24:46.959Z,16.10
2019-04-01T09:27:18.950Z,23.67
2019-04-01T09:29:47.382Z,20.67
2019-04-01T09:32:15.922Z,26.83
2019-04-01T09:34:45.985Z,23.33
2019-04-01T09:37:14.749Z,17.70
2019-04-01T09:39:43.573Z,16.43
2019-04-01T09:42:17.872Z,14.03
2019-04-01T09:44:48.935Z,19.67
2019-04-01T09:47:21.831Z,26.07
2019-04-01T09:49:55.148Z,22.03
2019-04-01T09:52:30.169Z,19.40
2019-04-01T09:55:15.343Z,18.90
2019-04-01T09:57:43.799Z,20.43
2019-04-01T10:00:14.753Z,22.90
2019-04-01T10:02:46.559Z,22.40
2019-04-01T10:05:17.882Z,17.70
2019-04-01T10:07:46.836Z,23.83
2019-04-01T10:10:15.737Z,31.23
2019-04-01T10:12:48.711Z,21.90
2019-04-01T10:15:21.611Z,24.60
2019-04-01T10:17:52.727Z,16.03
2019-04-01T10:20:21.235Z,23.90
2019-04-01T10:22:50.056Z,29.37
2019-04-01T10:25:23.349Z,22.10
2019-04-01T10:27:53.613Z,21.50
2019-04-01T10:30:22.889Z,18.43
2019-04-01T10:32:51.310Z,21.60
2019-04-01T10:35:23.951Z,25.87
2019-04-01T10:37:57.531Z,30.10
2019-04-01T10:40:27.122Z,18.70
2019-04-01T10:42:55.932Z,24.20
2019-04-01T10:45:25.494Z,22.23
2019-04-01T10:47:56.904Z,20.77
2019-04-01T10:50:25.711Z,25.53
2019-04-01T10:52:54.238Z,20.33
2019-04-01T10:55:27.622Z,31.47
2019-04-01T10:57:59.604Z,19.70
2019-04-01T11:00:33.606Z,23.97
2019-04-01T11:03:05.888Z,20.10
2019-04-01T11:05:32.622Z,20.60
2019-04-01T11:08:02.424Z,25.47
2019-04-01T11:10:34.462Z,18.97
2019-04-01T11:13:03.477Z,22.37
2019-04-01T11:15:32.189Z,22.97
2019-04-01T11:18:02.888Z,20.40
2019-04-01T11:20:36.892Z,21.20
2019-04-01T11:23:09.762Z,25.60
2019-04-01T11:25:39.729Z,29.17
2019-04-01T11:28:08.480Z,30.43
2019-04-01T11:30:38.594Z,21.57
2019-04-01T11:33:11.248Z,26.73
2019-04-01T11:35:42.250Z,20.97
2019-04-01T11:38:11.162Z,23.00
2019-04-01T11:40:39.734Z,31.13
2019-04-01T11:43:10.293Z,24.93
2019-04-01T11:45:39.005Z,26.83
2019-04-01T11:48:07.607Z,22.30
2019-04-01T11:50:40.382Z,21.47
2019-04-01T11:53:12.256Z,37.03
2019-04-01T11:55:41.505Z,26.97
2019-04-01T11:58:10.892Z,24.20
2019-04-01T12:00:40.831Z,28.37
2019-04-01T12:03:14.158Z,23.70
2019-04-01T12:05:43.018Z,23.77
2019-04-01T12:08:11.802Z,32.07
2019-04-01T12:10:42.773Z,25.67
2019-04-01T12:13:15.008Z,27.63
2019-04-01T12:15:49.247Z,25.93
2019-04-01T12:18:13.695Z,25.13
2019-04-01T12:20:43.768Z,24.57
2019-04-01T12:23:13.726Z,26.20
2019-04-01T12:25:42.907Z,30.63
2019-04-01T12:28:11.408Z,25.07
2019-04-01T12:30:44.294Z,23.97
2019-04-01T12:33:15.282Z,27.83
2019-04-01T12:35:51.003Z,24.03
2019-04-01T12:38:19.521Z,26.33
2019-04-01T12:40:49.092Z,27.10
2019-04-01T12:43:19.529Z,30.00
2019-04-01T12:45:51.186Z,28.73
2019-04-01T12:48:19.220Z,28.43
2019-04-01T12:50:47.649Z,28.97
2019-04-01T12:53:21.612Z,40.53
2019-04-01T12:55:54.637Z,29.03
2019-04-01T12:58:26.057Z,37.63
2019-04-01T13:00:54.749Z,33.70
2019-04-01T13:03:23.194Z,30.83
2019-04-01T13:05:54.006Z,109.67
2019-04-01T13:08:28.575Z,64.40
2019-04-01T13:10:57.889Z,24.90
2019-04-01T13:13:26.324Z,26.77
2019-04-01T13:15:57.030Z,27.00
2019-04-01T13:18:28.660Z,26.30
2019-04-01T13:20:57.082Z,32.43
2019-04-01T13:23:25.562Z,30.43
2019-04-01T13:25:58.469Z,38.43
2019-04-01T13:28:29.936Z,27.50
2019-04-01T13:31:04.095Z,38.30
2019-04-01T13:33:28.582Z,30.00
2019-04-01T13:35:58.588Z,29.70
2019-04-01T13:38:30.166Z,30.60
2019-04-01T13:40:58.689Z,38.33
2019-04-01T13:43:27.137Z,26.17
2019-04-01T13:45:59.717Z,33.50
2019-04-01T13:48:31.643Z,31.00
2019-04-01T13:51:01.593Z,30.23
2019-04-01T13:53:30.169Z,27.97
2019-04-01T13:56:01.647Z,27.80
2019-04-01T13:58:34.291Z,28.40
2019-04-01T14:01:06.734Z,32.50
2019-04-01T14:03:35.441Z,35.80
2019-04-01T14:06:04.317Z,24.70
2019-04-01T14:08:35.090Z,30.00
2019-04-01T14:11:07.430Z,28.60
2019-04-01T14:13:35.864Z,32.70
2019-04-01T14:16:04.383Z,24.03
2019-04-01T14:18:35.228Z,26.53
2019-04-01T14:21:15.914Z,31.23
2019-04-01T14:23:36.596Z,29.30
2019-04-01T14:26:05.049Z,28.30
2019-04-01T14:28:38.159Z,26.40
2019-04-01T14:31:10.842Z,33.80
2019-04-01T14:33:40.733Z,28.23
2019-04-01T14:36:12.489Z,30.03
2019-04-01T14:38:41.286Z,35.90
2019-04-01T14:41:15.692Z,28.33
2019-04-01T14:43:47.081Z,26.20
2019-04-01T14:46:18.439Z,30.90
2019-04-01T14:48:47.314Z,30.67
2019-04-01T14:51:16.589Z,26.97
2019-04-01T14:53:49.411Z,33.53
2019-04-01T14:56:21.230Z,24.40
2019-04-01T14:58:51.041Z,25.53
2019-04-01T15:01:19.603Z,26.73
2019-04-01T15:03:48.764Z,26.97
2019-04-01T15:06:21.011Z,25.03
2019-04-01T15:08:49.683Z,24.10
2019-04-01T15:11:18.461Z,23.47
2019-04-01T15:13:49.954Z,26.70
2019-04-01T15:16:20.659Z,36.33
2019-04-01T15:18:49.218Z,34.83
2019-04-01T15:21:17.686Z,29.57
2019-04-01T15:23:53.107Z,27.27
2019-04-01T15:26:22.811Z,22.07
2019-04-01T15:28:51.330Z,32.50
2019-04-01T15:31:19.808Z,21.63
2019-04-01T15:33:48.297Z,34.67
2019-04-01T15:36:16.744Z,27.83
2019-04-01T15:38:45.220Z,27.83
2019-04-01T15:41:13.751Z,30.80
2019-04-01T15:43:42.186Z,28.67
2019-04-01T15:46:10.624Z,29.30
2019-04-01T15:48:39.076Z,26.77
2019-04-01T15:51:07.947Z,35.37
2019-04-01T15:53:36.890Z,23.83
2019-04-01T15:56:05.305Z,30.70
2019-04-01T15:58:33.789Z,34.00
2019-04-01T16:01:02.370Z,23.13
2019-04-01T16:03:31.680Z,25.50
2019-04-01T16:06:00.126Z,30.43
2019-04-01T16:08:28.646Z,23.40
2019-04-01T16:10:57.102Z,30.83
2019-04-01T16:13:25.534Z,25.80
2019-04-01T16:15:53.994Z,24.10
2019-04-01T16:18:22.454Z,33.93
2019-04-01T16:20:50.860Z,30.80
2019-04-01T16:23:19.428Z,28.13
2019-04-01T16:25:48.088Z,28.00
2019-04-01T16:28:16.526Z,25.63
2019-04-01T16:30:45.018Z,27.23
2019-04-01T16:33:13.468Z,28.93
2019-04-01T16:35:41.890Z,28.73
2019-04-01T16:38:10.392Z,24.93
2019-04-01T16:40:38.842Z,30.83
2019-04-01T16:43:07.327Z,30.13
2019-04-01T16:45:35.836Z,34.00
2019-04-01T16:48:04.433Z,25.80
2019-04-01T16:50:33.521Z,29.03
2019-04-01T16:53:02.978Z,23.70
2019-04-01T16:55:31.516Z,24.27
2019-04-01T16:57:59.952Z,33.20
2019-04-01T17:00:28.440Z,30.63
2019-04-01T17:02:56.902Z,29.87
2019-04-01T17:05:31.212Z,25.13
2019-04-01T17:07:59.648Z,27.77
2019-04-01T17:10:28.287Z,27.27
2019-04-01T17:12:56.730Z,27.63
2019-04-01T17:15:25.435Z,32.60
2019-04-01T17:17:53.880Z,23.87
2019-04-01T17:20:22.318Z,35.13
2019-04-01T17:22:50.772Z,26.93
2019-04-01T17:25:19.197Z,29.70
2019-04-01T17:27:47.636Z,31.77
2019-04-01T17:30:16.434Z,27.00
2019-04-01T17:32:44.918Z,30.07
2019-04-01T17:35:13.781Z,26.13
2019-04-01T17:37:42.310Z,27.87
2019-04-01T17:40:12.807Z,24.37
2019-04-01T17:42:41.372Z,30.17
2019-04-01T17:45:21.622Z,28.37
2019-04-01T17:47:50.161Z,28.27
2019-04-01T17:50:18.961Z,25.40
2019-04-01T17:52:47.654Z,31.23
2019-04-01T17:55:17.203Z,28.60
2019-04-01T17:57:46.244Z,28.10
2019-04-01T18:00:31.248Z,31.70
2019-04-01T18:03:00.015Z,32.70
2019-04-01T18:05:28.475Z,27.57
2019-04-01T18:07:56.933Z,31.13
2019-04-01T18:10:25.649Z,26.10
2019-04-01T18:12:54.190Z,35.30
2019-04-01T18:15:22.960Z,37.70
2019-04-01T18:17:51.849Z,31.13
2019-04-01T18:20:20.552Z,34.27
2019-04-01T18:22:49.245Z,29.07
2019-04-01T18:25:17.841Z,26.17
2019-04-01T18:27:46.301Z,28.87
2019-04-01T18:30:15.082Z,27.20
2019-04-01T18:32:43.516Z,27.10
2019-04-01T18:35:12.481Z,37.30
2019-04-01T18:37:40.919Z,28.27
2019-04-01T18:40:09.682Z,32.70
2019-04-01T18:42:38.124Z,36.00
2019-04-01T18:45:07.897Z,27.27
2019-04-01T18:47:38.902Z,30.40
2019-04-01T18:50:07.047Z,32.10
2019-04-01T18:52:35.465Z,32.37
2019-04-01T18:55:07.740Z,28.50
2019-04-01T18:57:35.933Z,30.80
2019-04-01T19:00:07.200Z,33.30
2019-04-01T19:02:35.609Z,36.73
2019-04-01T19:05:04.413Z,29.93
2019-04-01T19:07:32.828Z,38.60
2019-04-01T19:10:06.499Z,32.13
2019-04-01T19:12:31.439Z,34.77
2019-04-01T19:15:02.388Z,29.50
2019-04-01T19:17:30.137Z,35.30
2019-04-01T19:19:58.721Z,39.40
2019-04-01T19:22:27.178Z,50.60
2019-04-01T19:24:56.929Z,39.43
2019-04-01T19:27:25.474Z,33.70
2019-04-01T19:29:53.909Z,34.70
2019-04-01T19:32:22.525Z,38.13
2019-04-01T19:34:51.035Z,31.27
2019-04-01T19:37:19.577Z,29.80
2019-04-01T19:39:48.033Z,31.70
2019-04-01T19:42:17.970Z,32.53
2019-04-01T19:44:46.584Z,47.80
2019-04-01T19:47:15.023Z,41.43
2019-04-01T19:49:44.060Z,41.50
2019-04-01T19:52:12.816Z,42.43
2019-04-01T19:54:41.273Z,39.20
2019-04-01T19:57:09.861Z,41.23
2019-04-01T19:59:38.390Z,47.00
2019-04-01T20:02:09.358Z,38.73
2019-04-01T20:04:37.044Z,37.40
2019-04-01T20:07:05.461Z,36.13
2019-04-01T20:09:33.895Z,36.43
2019-04-01T20:12:02.318Z,42.13
2019-04-01T20:14:30.763Z,37.53
2019-04-01T20:17:01.924Z,31.20
2019-04-01T20:19:29.520Z,43.60
2019-04-01T20:21:57.998Z,35.03
2019-04-01T20:24:26.435Z,36.37
2019-04-01T20:26:54.875Z,35.33
2019-04-01T20:29:23.312Z,47.67
2019-04-01T20:31:51.764Z,49.03
2019-04-01T20:34:21.412Z,52.27
2019-04-01T20:36:50.425Z,45.70
2019-04-01T20:39:18.881Z,59.67
2019-04-01T20:41:48.216Z,42.47
2019-04-01T20:44:17.521Z,50.90
2019-04-01T20:46:45.929Z,39.63
2019-04-01T20:49:14.381Z,37.77
2019-04-01T20:51:42.861Z,42.70
2019-04-01T20:54:11.297Z,42.80
2019-04-01T20:56:39.779Z,38.43
2019-04-01T20:59:10.189Z,35.67
2019-04-01T21:01:38.441Z,45.43
2019-04-01T21:04:07.804Z,35.17
2019-04-01T21:06:36.233Z,37.80
2019-04-01T21:09:07.871Z,37.90
2019-04-01T21:11:36.309Z,36.13
2019-04-01T21:14:05.286Z,35.30
2019-04-01T21:16:33.704Z,38.33
2019-04-01T21:19:02.147Z,35.50
2019-04-01T21:21:30.601Z,31.93
2019-04-01T21:23:59.890Z,31.83
2019-04-01T21:26:28.545Z,27.50
2019-04-01T21:28:57.639Z,31.33
2019-04-01T21:31:26.093Z,28.93
2019-04-01T21:33:54.552Z,48.40
2019-04-01T21:36:22.990Z,31.37
2019-04-01T21:38:51.420Z,28.00
2019-04-01T21:41:20.522Z,33.17
2019-04-01T21:43:49.489Z,28.30
2019-04-01T21:46:17.978Z,25.60
2019-04-01T21:48:46.422Z,27.70
2019-04-01T21:51:14.888Z,26.63
2019-04-01T21:53:43.367Z,24.77
2019-04-01T21:56:11.807Z,23.77
2019-04-01T21:58:40.483Z,27.87
2019-04-01T22:01:09.213Z,24.87
2019-04-01T22:03:37.661Z,30.97
2019-04-01T22:06:06.120Z,30.70
2019-04-01T22:08:35.186Z,26.80
2019-04-01T22:11:04.884Z,34.63
2019-04-01T22:13:33.351Z,29.50
2019-04-01T22:16:01.816Z,27.93
2019-04-01T22:18:32.845Z,29.93
2019-04-01T22:21:00.412Z,33.27
2019-04-01T22:23:28.885Z,33.00
2019-04-01T22:25:58.900Z,25.50
2019-04-01T22:28:27.554Z,29.13
2019-04-01T22:30:55.979Z,27.63
2019-04-01T22:33:24.397Z,40.83
2019-04-01T22:35:52.849Z,23.63
2019-04-01T22:38:25.339Z,24.17
2019-04-01T22:40:51.536Z,26.30
2019-04-01T22:43:19.989Z,31.13
2019-04-01T22:45:49.281Z,29.10
2019-04-01T22:48:18.045Z,26.13
2019-04-01T22:50:46.489Z,31.10
2019-04-01T22:53:14.915Z,31.20
2019-04-01T22:55:43.354Z,25.07
2019-04-01T22:58:11.802Z,26.93
2019-04-01T23:00:40.213Z,34.40
2019-04-01T23:03:08.670Z,24.27
2019-04-01T23:05:37.359Z,25.13
2019-04-01T23:08:06.279Z,21.53
2019-04-01T23:10:34.885Z,26.03
2019-04-01T23:13:03.407Z,25.17
2019-04-01T23:15:31.813Z,26.40
2019-04-01T23:18:00.273Z,22.07
2019-04-01T23:20:28.711Z,27.03
2019-04-01T23:22:57.987Z,24.80
2019-04-01T23:25:26.858Z,24.43
2019-04-01T23:27:55.481Z,24.10
2019-04-01T23:30:24.471Z,25.93
2019-04-01T23:32:52.892Z,26.53
2019-04-01T23:35:21.339Z,22.87
2019-04-01T23:37:49.832Z,23.63
2019-04-01T23:40:18.273Z,29.17
2019-04-01T23:42:46.763Z,24.13
2019-04-01T23:45:15.342Z,24.93
2019-04-01T23:47:45.234Z,21.67
2019-04-01T23:50:14.100Z,27.30
2019-04-01T23:52:42.516Z,29.47
2019-04-01T23:55:11.027Z,29.13
2019-04-01T23:57:39.431Z,25.10
